sensor_id;sensor_type;location;lat;lon;timestamp;pressure;altitude;pressure_sealevel;temperature;humidity
73600;BME280;61877;48.246;9.220;2023-04-23T00:02:15;93587.75;;;11.00;83.88
73600;BME280;61877;48.246;9.220;2023-04-23T00:04:49;93589.22;;;10.98;83.54
73600;BME280;61877;48.246;9.220;2023-04-23T00:07:18;93585.75;;;10.97;83.91
73600;BME280;61877;48.246;9.220;2023-04-23T00:09:44;93587.94;;;10.92;84.31
73600;BME280;61877;48.246;9.220;2023-04-23T00:12:10;93581.38;;;10.89;84.14
73600;BME280;61877;48.246;9.220;2023-04-23T00:14:36;93589.00;;;10.87;84.98
73600;BME280;61877;48.246;9.220;2023-04-23T00:17:01;93584.34;;;10.84;84.72
73600;BME280;61877;48.246;9.220;2023-04-23T00:19:27;93594.19;;;10.80;84.81
73600;BME280;61877;48.246;9.220;2023-04-23T00:21:52;93593.94;;;10.85;84.82
73600;BME280;61877;48.246;9.220;2023-04-23T00:24:20;93593.50;;;10.83;84.97
73600;BME280;61877;48.246;9.220;2023-04-23T00:26:45;93588.13;;;10.83;85.10
73600;BME280;61877;48.246;9.220;2023-04-23T00:29:11;93588.13;;;10.83;84.68
73600;BME280;61877;48.246;9.220;2023-04-23T00:31:36;93585.78;;;10.82;84.69
73600;BME280;61877;48.246;9.220;2023-04-23T00:34:02;93587.22;;;10.76;85.16
73600;BME280;61877;48.246;9.220;2023-04-23T00:36:27;93593.69;;;10.75;86.12
73600;BME280;61877;48.246;9.220;2023-04-23T00:38:53;93591.78;;;10.75;86.24
73600;BME280;61877;48.246;9.220;2023-04-23T00:41:21;93593.34;;;10.76;86.75
73600;BME280;61877;48.246;9.220;2023-04-23T00:43:47;93598.44;;;10.81;86.89
73600;BME280;61877;48.246;9.220;2023-04-23T00:46:14;93593.41;;;10.80;86.69
73600;BME280;61877;48.246;9.220;2023-04-23T00:48:39;93599.13;;;10.78;86.72
73600;BME280;61877;48.246;9.220;2023-04-23T00:51:05;93604.84;;;10.77;86.71
73600;BME280;61877;48.246;9.220;2023-04-23T00:53:31;93599.41;;;10.73;86.27
73600;BME280;61877;48.246;9.220;2023-04-23T00:55:57;93608.66;;;10.76;86.67
73600;BME280;61877;48.246;9.220;2023-04-23T00:58:24;93604.75;;;10.73;86.52
73600;BME280;61877;48.246;9.220;2023-04-23T01:00:50;93603.22;;;10.72;86.33
73600;BME280;61877;48.246;9.220;2023-04-23T01:03:16;93613.16;;;10.72;86.84
73600;BME280;61877;48.246;9.220;2023-04-23T01:05:43;93612.38;;;10.71;87.28
73600;BME280;61877;48.246;9.220;2023-04-23T01:08:09;93613.59;;;10.74;87.26
73600;BME280;61877;48.246;9.220;2023-04-23T01:10:38;93610.13;;;10.73;87.36
73600;BME280;61877;48.246;9.220;2023-04-23T01:13:04;93614.75;;;10.73;88.13
73600;BME280;61877;48.246;9.220;2023-04-23T01:15:31;93612.06;;;10.73;88.31
73600;BME280;61877;48.246;9.220;2023-04-23T01:17:56;93617.06;;;10.74;89.10
73600;BME280;61877;48.246;9.220;2023-04-23T01:20:22;93620.16;;;10.76;88.23
73600;BME280;61877;48.246;9.220;2023-04-23T01:22:49;93616.28;;;10.74;88.57
73600;BME280;61877;48.246;9.220;2023-04-23T01:25:15;93611.00;;;10.77;88.91
73600;BME280;61877;48.246;9.220;2023-04-23T01:27:41;93604.84;;;10.77;88.68
73600;BME280;61877;48.246;9.220;2023-04-23T01:30:10;93611.78;;;10.78;89.91
73600;BME280;61877;48.246;9.220;2023-04-23T01:32:36;93610.31;;;10.80;90.18
73600;BME280;61877;48.246;9.220;2023-04-23T01:35:02;93616.44;;;10.81;89.87
73600;BME280;61877;48.246;9.220;2023-04-23T01:37:28;93619.50;;;10.79;90.76
73600;BME280;61877;48.246;9.220;2023-04-23T01:39:57;93607.00;;;10.71;90.19
73600;BME280;61877;48.246;9.220;2023-04-23T01:42:23;93617.00;;;10.71;90.31
73600;BME280;61877;48.246;9.220;2023-04-23T01:44:48;93618.63;;;10.75;92.09
73600;BME280;61877;48.246;9.220;2023-04-23T01:47:14;93616.63;;;10.72;92.11
73600;BME280;61877;48.246;9.220;2023-04-23T01:49:40;93618.88;;;10.70;92.00
73600;BME280;61877;48.246;9.220;2023-04-23T01:52:06;93615.84;;;10.72;92.77
73600;BME280;61877;48.246;9.220;2023-04-23T01:54:31;93612.38;;;10.71;92.53
73600;BME280;61877;48.246;9.220;2023-04-23T01:56:58;93617.59;;;10.64;93.05
73600;BME280;61877;48.246;9.220;2023-04-23T01:59:23;93614.50;;;10.62;93.78
73600;BME280;61877;48.246;9.220;2023-04-23T02:01:49;93613.63;;;10.58;94.07
73600;BME280;61877;48.246;9.220;2023-04-23T02:04:15;93625.03;;;10.55;94.37
73600;BME280;61877;48.246;9.220;2023-04-23T02:06:43;93621.09;;;10.49;94.40
73600;BME280;61877;48.246;9.220;2023-04-23T02:09:09;93615.28;;;10.47;95.22
73600;BME280;61877;48.246;9.220;2023-04-23T02:11:34;93618.41;;;10.49;95.67
73600;BME280;61877;48.246;9.220;2023-04-23T02:14:02;93616.91;;;10.52;95.89
73600;BME280;61877;48.246;9.220;2023-04-23T02:16:28;93619.94;;;10.50;95.11
73600;BME280;61877;48.246;9.220;2023-04-23T02:18:53;93617.19;;;10.47;96.35
73600;BME280;61877;48.246;9.220;2023-04-23T02:21:19;93617.97;;;10.47;96.22
73600;BME280;61877;48.246;9.220;2023-04-23T02:23:44;93622.44;;;10.43;96.04
73600;BME280;61877;48.246;9.220;2023-04-23T02:26:10;93626.97;;;10.39;96.02
73600;BME280;61877;48.246;9.220;2023-04-23T02:28:35;93622.38;;;10.39;96.19
73600;BME280;61877;48.246;9.220;2023-04-23T02:31:02;93618.84;;;10.35;96.45
73600;BME280;61877;48.246;9.220;2023-04-23T02:33:28;93619.19;;;10.34;96.92
73600;BME280;61877;48.246;9.220;2023-04-23T02:35:53;93616.06;;;10.32;96.73
73600;BME280;61877;48.246;9.220;2023-04-23T02:38:19;93610.69;;;10.32;96.73
73600;BME280;61877;48.246;9.220;2023-04-23T02:40:44;93619.44;;;10.29;96.02
73600;BME280;61877;48.246;9.220;2023-04-23T02:43:09;93619.44;;;10.29;97.31
73600;BME280;61877;48.246;9.220;2023-04-23T02:45:35;93614.78;;;10.26;97.28
73600;BME280;61877;48.246;9.220;2023-04-23T02:48:02;93626.59;;;10.25;97.67
73600;BME280;61877;48.246;9.220;2023-04-23T02:50:27;93630.88;;;10.26;98.02
73600;BME280;61877;48.246;9.220;2023-04-23T02:52:53;93625.84;;;10.24;97.73
73600;BME280;61877;48.246;9.220;2023-04-23T02:55:18;93631.97;;;10.25;97.94
73600;BME280;61877;48.246;9.220;2023-04-23T02:57:44;93628.19;;;10.26;98.11
73600;BME280;61877;48.246;9.220;2023-04-23T03:00:10;93625.06;;;10.24;98.09
73600;BME280;61877;48.246;9.220;2023-04-23T03:02:36;93621.16;;;10.21;97.78
73600;BME280;61877;48.246;9.220;2023-04-23T03:05:04;93621.50;;;10.20;98.02
73600;BME280;61877;48.246;9.220;2023-04-23T03:07:29;93621.50;;;10.20;97.86
73600;BME280;61877;48.246;9.220;2023-04-23T03:09:55;93628.09;;;10.22;97.92
73600;BME280;61877;48.246;9.220;2023-04-23T03:12:20;93620.84;;;10.23;97.84
73600;BME280;61877;48.246;9.220;2023-04-23T03:14:46;93613.06;;;10.18;96.96
73600;BME280;61877;48.246;9.220;2023-04-23T03:17:11;93612.63;;;10.16;97.40
73600;BME280;61877;48.246;9.220;2023-04-23T03:19:36;93617.28;;;10.19;97.54
73600;BME280;61877;48.246;9.220;2023-04-23T03:22:03;93612.69;;;10.19;97.88
73600;BME280;61877;48.246;9.220;2023-04-23T03:24:29;93615.28;;;10.16;98.19
73600;BME280;61877;48.246;9.220;2023-04-23T03:26:54;93606.72;;;10.10;98.52
73600;BME280;61877;48.246;9.220;2023-04-23T03:29:20;93610.53;;;10.09;98.37
73600;BME280;61877;48.246;9.220;2023-04-23T03:31:45;93606.16;;;10.05;97.95
73600;BME280;61877;48.246;9.220;2023-04-23T03:34:11;93606.41;;;10.00;98.46
73600;BME280;61877;48.246;9.220;2023-04-23T03:36:36;93608.69;;;9.98;98.83
73600;BME280;61877;48.246;9.220;2023-04-23T03:39:03;93601.31;;;9.95;98.90
73600;BME280;61877;48.246;9.220;2023-04-23T03:41:29;93610.47;;;9.94;98.13
73600;BME280;61877;48.246;9.220;2023-04-23T03:43:54;93607.09;;;9.97;98.41
73600;BME280;61877;48.246;9.220;2023-04-23T03:46:20;93605.66;;;9.99;98.46
73600;BME280;61877;48.246;9.220;2023-04-23T03:48:45;93610.22;;;9.99;97.92
73600;BME280;61877;48.246;9.220;2023-04-23T03:51:11;93613.34;;;10.01;98.05
73600;BME280;61877;48.246;9.220;2023-04-23T03:53:36;93616.47;;;10.03;97.97
73600;BME280;61877;48.246;9.220;2023-04-23T03:56:04;93617.56;;;10.02;98.13
73600;BME280;61877;48.246;9.220;2023-04-23T03:58:29;93619.41;;;9.98;98.00
73600;BME280;61877;48.246;9.220;2023-04-23T04:00:55;93619.41;;;9.98;98.65
73600;BME280;61877;48.246;9.220;2023-04-23T04:03:20;93615.84;;;9.94;98.43
73600;BME280;61877;48.246;9.220;2023-04-23T04:05:45;93618.88;;;9.92;99.18
73600;BME280;61877;48.246;9.220;2023-04-23T04:08:11;93628.78;;;9.92;98.71
73600;BME280;61877;48.246;9.220;2023-04-23T04:10:36;93629.50;;;9.89;98.84
73600;BME280;61877;48.246;9.220;2023-04-23T04:13:03;93631.63;;;9.83;98.75
73600;BME280;61877;48.246;9.220;2023-04-23T04:15:29;93626.63;;;9.82;98.99
73600;BME280;61877;48.246;9.220;2023-04-23T04:17:54;93624.19;;;9.77;99.02
73600;BME280;61877;48.246;9.220;2023-04-23T04:20:19;93626.34;;;9.71;99.48
73600;BME280;61877;48.246;9.220;2023-04-23T04:22:45;93623.13;;;9.66;99.65
73600;BME280;61877;48.246;9.220;2023-04-23T04:25:10;93613.56;;;9.65;100.00
73600;BME280;61877;48.246;9.220;2023-04-23T04:27:36;93620.47;;;9.66;100.00
73600;BME280;61877;48.246;9.220;2023-04-23T04:30:03;93617.78;;;9.66;99.88
73600;BME280;61877;48.246;9.220;2023-04-23T04:32:31;93615.88;;;9.66;100.00
73600;BME280;61877;48.246;9.220;2023-04-23T04:34:57;93614.41;;;9.69;100.00
73600;BME280;61877;48.246;9.220;2023-04-23T04:37:23;93622.09;;;9.70;100.00
73600;BME280;61877;48.246;9.220;2023-04-23T04:39:49;93620.66;;;9.73;100.00
73600;BME280;61877;48.246;9.220;2023-04-23T04:42:14;93619.53;;;9.74;99.99
73600;BME280;61877;48.246;9.220;2023-04-23T04:44:40;93620.75;;;9.76;99.80
73600;BME280;61877;48.246;9.220;2023-04-23T04:47:06;93621.59;;;9.80;99.71
73600;BME280;61877;48.246;9.220;2023-04-23T04:49:32;93623.94;;;9.82;99.24
73600;BME280;61877;48.246;9.220;2023-04-23T04:51:57;93626.28;;;9.83;98.84
73600;BME280;61877;48.246;9.220;2023-04-23T04:54:23;93636.22;;;9.83;99.32
73600;BME280;61877;48.246;9.220;2023-04-23T04:56:48;93629.28;;;9.82;99.21
73600;BME280;61877;48.246;9.220;2023-04-23T04:59:14;93616.34;;;9.68;96.41
73600;BME280;61877;48.246;9.220;2023-04-23T05:01:40;93607.09;;;9.81;97.09
73600;BME280;61877;48.246;9.220;2023-04-23T05:04:07;93614.78;;;9.83;98.66
73600;BME280;61877;48.246;9.220;2023-04-23T05:06:33;93618.94;;;9.80;97.67
73600;BME280;61877;48.246;9.220;2023-04-23T05:08:58;93619.56;;;9.89;98.16
73600;BME280;61877;48.246;9.220;2023-04-23T05:11:24;93620.06;;;9.95;98.73
73600;BME280;61877;48.246;9.220;2023-04-23T05:13:50;93618.97;;;9.96;99.17
73600;BME280;61877;48.246;9.220;2023-04-23T05:16:15;93613.69;;;9.99;98.99
73600;BME280;61877;48.246;9.220;2023-04-23T05:18:41;93624.84;;;10.01;98.39
73600;BME280;61877;48.246;9.220;2023-04-23T05:21:08;93623.03;;;10.05;98.72
73600;BME280;61877;48.246;9.220;2023-04-23T05:23:34;93623.81;;;10.06;98.50
73600;BME280;61877;48.246;9.220;2023-04-23T05:26:00;93621.91;;;10.06;98.56
73600;BME280;61877;48.246;9.220;2023-04-23T05:28:25;93615.44;;;10.07;98.63
73600;BME280;61877;48.246;9.220;2023-04-23T05:30:51;93620.91;;;10.11;97.56
73600;BME280;61877;48.246;9.220;2023-04-23T05:33:16;93620.75;;;10.19;98.34
73600;BME280;61877;48.246;9.220;2023-04-23T05:35:42;93627.41;;;10.25;97.42
73600;BME280;61877;48.246;9.220;2023-04-23T05:38:09;93637.16;;;10.33;98.18
73600;BME280;61877;48.246;9.220;2023-04-23T05:40:34;93625.25;;;10.31;97.39
73600;BME280;61877;48.246;9.220;2023-04-23T05:43:00;93619.88;;;10.31;97.39
73600;BME280;61877;48.246;9.220;2023-04-23T05:45:26;93614.06;;;10.29;97.49
73600;BME280;61877;48.246;9.220;2023-04-23T05:47:51;93617.69;;;10.36;97.74
73600;BME280;61877;48.246;9.220;2023-04-23T05:50:16;93626.97;;;10.39;97.35
73600;BME280;61877;48.246;9.220;2023-04-23T05:52:42;93631.19;;;10.40;97.44
73600;BME280;61877;48.246;9.220;2023-04-23T05:55:09;93611.72;;;10.43;97.65
73600;BME280;61877;48.246;9.220;2023-04-23T05:57:35;93617.78;;;10.40;97.40
73600;BME280;61877;48.246;9.220;2023-04-23T06:00:01;93618.66;;;10.44;96.12
73600;BME280;61877;48.246;9.220;2023-04-23T06:02:26;93621.84;;;10.50;96.36
73600;BME280;61877;48.246;9.220;2023-04-23T06:04:52;93621.53;;;10.51;96.77
73600;BME280;61877;48.246;9.220;2023-04-23T06:07:20;93622.81;;;10.57;96.25
73600;BME280;61877;48.246;9.220;2023-04-23T06:09:45;93615.94;;;10.60;96.48
73600;BME280;61877;48.246;9.220;2023-04-23T06:12:12;93612.59;;;10.63;96.38
73600;BME280;61877;48.246;9.220;2023-04-23T06:14:38;93627.63;;;10.67;95.97
73600;BME280;61877;48.246;9.220;2023-04-23T06:17:04;93631.16;;;10.71;94.33
73600;BME280;61877;48.246;9.220;2023-04-23T06:19:29;93622.53;;;10.78;94.45
73600;BME280;61877;48.246;9.220;2023-04-23T06:21:55;93616.59;;;10.88;95.28
73600;BME280;61877;48.246;9.220;2023-04-23T06:24:20;93621.31;;;11.10;93.80
73600;BME280;61877;48.246;9.220;2023-04-23T06:26:46;93613.84;;;11.38;92.71
73600;BME280;61877;48.246;9.220;2023-04-23T06:29:14;93614.56;;;11.54;91.93
73600;BME280;61877;48.246;9.220;2023-04-23T06:31:39;93611.81;;;11.69;91.12
73600;BME280;61877;48.246;9.220;2023-04-23T06:34:05;93614.84;;;11.87;90.98
73600;BME280;61877;48.246;9.220;2023-04-23T06:36:30;93606.66;;;12.03;90.69
73600;BME280;61877;48.246;9.220;2023-04-23T06:38:55;93617.56;;;12.10;89.12
73600;BME280;61877;48.246;9.220;2023-04-23T06:41:21;93617.56;;;12.10;88.13
73600;BME280;61877;48.246;9.220;2023-04-23T06:43:46;93617.41;;;12.03;88.46
73600;BME280;61877;48.246;9.220;2023-04-23T06:46:14;93612.97;;;11.91;89.30
73600;BME280;61877;48.246;9.220;2023-04-23T06:48:40;93614.88;;;11.91;89.24
73600;BME280;61877;48.246;9.220;2023-04-23T06:51:06;93613.78;;;11.92;87.17
73600;BME280;61877;48.246;9.220;2023-04-23T06:53:31;93603.84;;;11.96;86.84
73600;BME280;61877;48.246;9.220;2023-04-23T06:55:57;93598.88;;;11.98;84.52
73600;BME280;61877;48.246;9.220;2023-04-23T06:58:23;93595.84;;;11.99;88.44
73600;BME280;61877;48.246;9.220;2023-04-23T07:00:48;93600.84;;;12.01;87.43
73600;BME280;61877;48.246;9.220;2023-04-23T07:03:15;93606.72;;;12.06;86.97
73600;BME280;61877;48.246;9.220;2023-04-23T07:05:41;93600.16;;;12.04;87.57
73600;BME280;61877;48.246;9.220;2023-04-23T07:08:06;93589.81;;;12.06;89.69
73600;BME280;61877;48.246;9.220;2023-04-23T07:10:32;93595.56;;;12.04;89.16
73600;BME280;61877;48.246;9.220;2023-04-23T07:13:00;93592.50;;;12.06;88.19
73600;BME280;61877;48.246;9.220;2023-04-23T07:15:25;93600.69;;;12.13;85.73
73600;BME280;61877;48.246;9.220;2023-04-23T07:17:51;93600.00;;;12.38;85.23
73600;BME280;61877;48.246;9.220;2023-04-23T07:20:18;93593.81;;;12.38;86.19
73600;BME280;61877;48.246;9.220;2023-04-23T07:22:45;93589.00;;;12.47;83.24
73600;BME280;61877;48.246;9.220;2023-04-23T07:25:10;93581.66;;;12.70;84.84
73600;BME280;61877;48.246;9.220;2023-04-23T07:27:36;93580.97;;;12.76;84.46
73600;BME280;61877;48.246;9.220;2023-04-23T07:30:02;93574.13;;;12.82;84.47
73600;BME280;61877;48.246;9.220;2023-04-23T07:32:28;93567.88;;;12.75;84.37
73600;BME280;61877;48.246;9.220;2023-04-23T07:34:53;93576.88;;;12.86;82.85
73600;BME280;61877;48.246;9.220;2023-04-23T07:37:20;93574.91;;;13.09;81.31
73600;BME280;61877;48.246;9.220;2023-04-23T07:39:46;93571.75;;;13.33;80.17
73600;BME280;61877;48.246;9.220;2023-04-23T07:42:12;93573.09;;;13.83;80.19
73600;BME280;61877;48.246;9.220;2023-04-23T07:44:37;93565.78;;;13.83;77.55
73600;BME280;61877;48.246;9.220;2023-04-23T07:47:03;93575.00;;;13.79;77.74
73600;BME280;61877;48.246;9.220;2023-04-23T07:49:29;93580.16;;;13.58;78.10
73600;BME280;61877;48.246;9.220;2023-04-23T07:51:54;93572.69;;;13.44;78.11
73600;BME280;61877;48.246;9.220;2023-04-23T07:54:22;93570.63;;;13.34;79.19
73600;BME280;61877;48.246;9.220;2023-04-23T07:56:48;93576.38;;;13.33;80.07
73600;BME280;61877;48.246;9.220;2023-04-23T07:59:13;93574.28;;;13.19;80.21
73600;BME280;61877;48.246;9.220;2023-04-23T08:01:39;93571.13;;;13.14;78.67
73600;BME280;61877;48.246;9.220;2023-04-23T08:04:04;93583.28;;;13.30;79.32
73600;BME280;61877;48.246;9.220;2023-04-23T08:06:30;93582.75;;;13.18;77.30
73600;BME280;61877;48.246;9.220;2023-04-23T08:08:55;93572.75;;;13.18;77.64
73600;BME280;61877;48.246;9.220;2023-04-23T08:11:23;93576.28;;;13.26;77.86
73600;BME280;61877;48.246;9.220;2023-04-23T08:13:49;93576.09;;;13.12;79.68
73600;BME280;61877;48.246;9.220;2023-04-23T08:16:14;93576.63;;;13.21;79.08
73600;BME280;61877;48.246;9.220;2023-04-23T08:18:40;93575.25;;;13.04;78.40
73600;BME280;61877;48.246;9.220;2023-04-23T08:21:06;93573.50;;;13.19;78.47
73600;BME280;61877;48.246;9.220;2023-04-23T08:23:31;93562.75;;;13.52;75.66
73600;BME280;61877;48.246;9.220;2023-04-23T08:25:57;93567.25;;;13.41;76.26
73600;BME280;61877;48.246;9.220;2023-04-23T08:28:25;93556.59;;;13.51;76.50
73600;BME280;61877;48.246;9.220;2023-04-23T08:30:51;93559.06;;;13.34;73.82
73600;BME280;61877;48.246;9.220;2023-04-23T08:33:16;93562.50;;;13.64;75.59
73600;BME280;61877;48.246;9.220;2023-04-23T08:35:42;93558.44;;;13.80;74.85
73600;BME280;61877;48.246;9.220;2023-04-23T08:38:07;93555.34;;;13.78;72.05
73600;BME280;61877;48.246;9.220;2023-04-23T08:40:35;93556.91;;;13.83;74.04
73600;BME280;61877;48.246;9.220;2023-04-23T08:43:02;93547.88;;;14.01;73.72
73600;BME280;61877;48.246;9.220;2023-04-23T08:45:33;93548.22;;;14.37;73.32
73600;BME280;61877;48.246;9.220;2023-04-23T08:48:00;93552.91;;;14.47;71.29
73600;BME280;61877;48.246;9.220;2023-04-23T08:50:28;93548.03;;;14.63;69.53
73600;BME280;61877;48.246;9.220;2023-04-23T08:52:55;93550.06;;;14.80;67.52
73600;BME280;61877;48.246;9.220;2023-04-23T08:55:21;93552.19;;;14.53;68.73
73600;BME280;61877;48.246;9.220;2023-04-23T08:57:48;93550.03;;;14.73;70.81
73600;BME280;61877;48.246;9.220;2023-04-23T09:00:16;93549.94;;;15.23;69.09
73600;BME280;61877;48.246;9.220;2023-04-23T09:02:45;93551.91;;;15.30;68.34
73600;BME280;61877;48.246;9.220;2023-04-23T09:05:11;93549.31;;;14.83;67.91
73600;BME280;61877;48.246;9.220;2023-04-23T09:07:37;93555.66;;;15.11;68.91
73600;BME280;61877;48.246;9.220;2023-04-23T09:10:03;93546.00;;;15.07;66.04
73600;BME280;61877;48.246;9.220;2023-04-23T09:12:29;93539.50;;;15.25;67.66
73600;BME280;61877;48.246;9.220;2023-04-23T09:14:55;93535.38;;;14.70;63.45
73600;BME280;61877;48.246;9.220;2023-04-23T09:17:22;93535.53;;;14.98;67.36
73600;BME280;61877;48.246;9.220;2023-04-23T09:19:51;93540.06;;;15.56;64.74
73600;BME280;61877;48.246;9.220;2023-04-23T09:22:39;93522.06;;;16.61;63.77
73600;BME280;61877;48.246;9.220;2023-04-23T09:25:06;93527.47;;;16.40;63.34
73600;BME280;61877;48.246;9.220;2023-04-23T09:27:31;93517.41;;;16.83;57.32
73600;BME280;61877;48.246;9.220;2023-04-23T09:29:57;93516.25;;;16.77;60.42
73600;BME280;61877;48.246;9.220;2023-04-23T09:32:30;93522.44;;;16.39;59.12
73600;BME280;61877;48.246;9.220;2023-04-23T09:34:58;93511.22;;;16.33;61.24
73600;BME280;61877;48.246;9.220;2023-04-23T09:37:26;93512.41;;;16.39;61.39
73600;BME280;61877;48.246;9.220;2023-04-23T09:39:53;93516.69;;;16.47;62.35
73600;BME280;61877;48.246;9.220;2023-04-23T09:42:22;93505.00;;;15.87;61.21
73600;BME280;61877;48.246;9.220;2023-04-23T09:44:55;93501.94;;;16.17;61.87
73600;BME280;61877;48.246;9.220;2023-04-23T09:47:21;93502.72;;;16.00;61.27
73600;BME280;61877;48.246;9.220;2023-04-23T09:49:50;93504.25;;;16.18;58.85
73600;BME280;61877;48.246;9.220;2023-04-23T09:52:17;93498.06;;;16.28;58.04
73600;BME280;61877;48.246;9.220;2023-04-23T09:54:43;93504.28;;;16.67;59.76
73600;BME280;61877;48.246;9.220;2023-04-23T09:57:10;93502.69;;;16.91;59.17
73600;BME280;61877;48.246;9.220;2023-04-23T09:59:35;93492.44;;;17.48;57.49
73600;BME280;61877;48.246;9.220;2023-04-23T10:02:02;93496.00;;;18.10;56.48
73600;BME280;61877;48.246;9.220;2023-04-23T10:04:28;93486.19;;;17.65;52.76
73600;BME280;61877;48.246;9.220;2023-04-23T10:06:54;93483.25;;;18.00;54.94
73600;BME280;61877;48.246;9.220;2023-04-23T10:09:24;93484.09;;;18.48;53.37
73600;BME280;61877;48.246;9.220;2023-04-23T10:11:51;93472.25;;;18.69;54.27
73600;BME280;61877;48.246;9.220;2023-04-23T10:14:17;93472.78;;;18.57;51.68
73600;BME280;61877;48.246;9.220;2023-04-23T10:16:43;93470.97;;;18.36;53.80
73600;BME280;61877;48.246;9.220;2023-04-23T10:19:13;93466.72;;;18.79;54.68
73600;BME280;61877;48.246;9.220;2023-04-23T10:21:40;93467.38;;;18.90;50.52
73600;BME280;61877;48.246;9.220;2023-04-23T10:24:09;93457.13;;;18.68;48.70
73600;BME280;61877;48.246;9.220;2023-04-23T10:26:37;93463.63;;;19.14;52.52
73600;BME280;61877;48.246;9.220;2023-04-23T10:29:04;93455.56;;;19.07;49.27
73600;BME280;61877;48.246;9.220;2023-04-23T10:31:33;93452.50;;;19.02;50.69
73600;BME280;61877;48.246;9.220;2023-04-23T10:34:01;93436.34;;;20.08;48.09
73600;BME280;61877;48.246;9.220;2023-04-23T10:36:28;93434.72;;;20.14;46.62
73600;BME280;61877;48.246;9.220;2023-04-23T10:38:54;93436.38;;;19.82;49.16
73600;BME280;61877;48.246;9.220;2023-04-23T10:41:22;93427.69;;;20.17;47.31
73600;BME280;61877;48.246;9.220;2023-04-23T10:43:51;93421.94;;;19.85;47.36
73600;BME280;61877;48.246;9.220;2023-04-23T10:46:27;93426.53;;;19.35;49.63
73600;BME280;61877;48.246;9.220;2023-04-23T10:49:05;93422.59;;;19.92;46.81
73600;BME280;61877;48.246;9.220;2023-04-23T10:51:34;93412.84;;;19.95;48.51
73600;BME280;61877;48.246;9.220;2023-04-23T10:54:02;93415.41;;;19.79;48.64
73600;BME280;61877;48.246;9.220;2023-04-23T10:56:27;93411.56;;;20.03;47.38
73600;BME280;61877;48.246;9.220;2023-04-23T10:59:18;93409.91;;;20.09;49.17
73600;BME280;61877;48.246;9.220;2023-04-23T11:01:45;93411.56;;;20.95;47.24
73600;BME280;61877;48.246;9.220;2023-04-23T11:04:21;93404.50;;;20.55;46.92
73600;BME280;61877;48.246;9.220;2023-04-23T11:06:52;93396.19;;;20.62;46.15
73600;BME280;61877;48.246;9.220;2023-04-23T11:09:28;93406.72;;;20.83;47.06
73600;BME280;61877;48.246;9.220;2023-04-23T11:11:54;93390.50;;;20.96;45.29
73600;BME280;61877;48.246;9.220;2023-04-23T11:14:32;93393.88;;;21.03;44.05
73600;BME280;61877;48.246;9.220;2023-04-23T11:16:58;93384.97;;;20.80;44.82
73600;BME280;61877;48.246;9.220;2023-04-23T11:19:24;93380.34;;;20.96;46.21
73600;BME280;61877;48.246;9.220;2023-04-23T11:21:57;93383.72;;;20.84;47.04
73600;BME280;61877;48.246;9.220;2023-04-23T11:24:24;93383.75;;;20.38;47.35
73600;BME280;61877;48.246;9.220;2023-04-23T11:26:51;93383.63;;;20.88;45.58
73600;BME280;61877;48.246;9.220;2023-04-23T11:29:18;93380.25;;;21.03;45.53
73600;BME280;61877;48.246;9.220;2023-04-23T11:31:47;93373.75;;;20.97;43.17
73600;BME280;61877;48.246;9.220;2023-04-23T11:34:13;93367.66;;;21.09;44.81
73600;BME280;61877;48.246;9.220;2023-04-23T11:36:39;93366.75;;;20.53;47.66
73600;BME280;61877;48.246;9.220;2023-04-23T11:39:04;93361.34;;;19.81;46.14
73600;BME280;61877;48.246;9.220;2023-04-23T11:41:30;93363.72;;;19.18;47.08
73600;BME280;61877;48.246;9.220;2023-04-23T11:43:58;93355.53;;;19.52;47.55
73600;BME280;61877;48.246;9.220;2023-04-23T11:46:24;93353.69;;;19.72;45.41
73600;BME280;61877;48.246;9.220;2023-04-23T11:48:55;93353.28;;;19.97;48.05
73600;BME280;61877;48.246;9.220;2023-04-23T11:51:24;93342.25;;;20.73;45.56
73600;BME280;61877;48.246;9.220;2023-04-23T11:53:50;93348.47;;;20.54;45.19
73600;BME280;61877;48.246;9.220;2023-04-23T11:56:15;93342.66;;;19.83;46.04
73600;BME280;61877;48.246;9.220;2023-04-23T11:58:41;93329.38;;;20.54;43.40
73600;BME280;61877;48.246;9.220;2023-04-23T12:01:06;93325.16;;;21.12;45.07
73600;BME280;61877;48.246;9.220;2023-04-23T12:03:32;93323.69;;;21.79;43.22
73600;BME280;61877;48.246;9.220;2023-04-23T12:05:59;93322.94;;;22.39;42.17
73600;BME280;61877;48.246;9.220;2023-04-23T12:08:32;93311.50;;;23.30;42.36
73600;BME280;61877;48.246;9.220;2023-04-23T12:11:00;93318.38;;;22.20;40.59
73600;BME280;61877;48.246;9.220;2023-04-23T12:13:28;93321.34;;;22.86;42.40
73600;BME280;61877;48.246;9.220;2023-04-23T12:15:55;93312.06;;;22.67;39.71
73600;BME280;61877;48.246;9.220;2023-04-23T12:18:26;93318.00;;;20.59;43.40
73600;BME280;61877;48.246;9.220;2023-04-23T12:20:55;93310.25;;;21.68;44.04
73600;BME280;61877;48.246;9.220;2023-04-23T12:23:26;93309.06;;;22.78;43.50
73600;BME280;61877;48.246;9.220;2023-04-23T12:25:52;93304.28;;;23.48;38.39
73600;BME280;61877;48.246;9.220;2023-04-23T12:28:21;93304.72;;;23.97;39.89
73600;BME280;61877;48.246;9.220;2023-04-23T12:30:47;93300.34;;;24.59;36.98
73600;BME280;61877;48.246;9.220;2023-04-23T12:33:13;93300.81;;;24.45;35.26
73600;BME280;61877;48.246;9.220;2023-04-23T12:35:39;93293.75;;;24.69;35.27
73600;BME280;61877;48.246;9.220;2023-04-23T12:38:05;93286.53;;;25.05;33.78
73600;BME280;61877;48.246;9.220;2023-04-23T12:40:32;93279.03;;;24.29;34.38
73600;BME280;61877;48.246;9.220;2023-04-23T12:42:58;93282.50;;;22.91;36.52
73600;BME280;61877;48.246;9.220;2023-04-23T12:45:25;93287.91;;;21.57;41.24
73600;BME280;61877;48.246;9.220;2023-04-23T12:47:50;93285.03;;;22.41;40.20
73600;BME280;61877;48.246;9.220;2023-04-23T12:50:16;93272.22;;;22.95;39.67
73600;BME280;61877;48.246;9.220;2023-04-23T12:52:42;93277.94;;;22.43;42.15
73600;BME280;61877;48.246;9.220;2023-04-23T12:55:08;93273.44;;;22.65;41.52
73600;BME280;61877;48.246;9.220;2023-04-23T13:00:00;93269.34;;;24.02;37.82
73600;BME280;61877;48.246;9.220;2023-04-23T13:02:26;93262.81;;;22.96;37.45